Time;durP1;ratioP1;P1;durP2;ratioP2;P2;SDS_P1;SDS_P2;PMS_P1;PMS_P2;Temp;Humidity;BMP_temperature;BMP_pressure;BME280_temperature;BME280_humidity;BME280_pressure;Samples;Min_cycle;Max_cycle;Signal;HPM_P1;HPM_P2
2022/10/30 00:00:13;;;;;;;13.57;3.10;;;15.50;86.20;;;;;;5015231;28;20033;-66
2022/10/30 00:02:42;;;;;;;16.05;3.63;;;15.30;87.50;;;;;;5014502;28;20080;-66
2022/10/30 00:05:09;;;;;;;11.85;3.92;;;15.20;89.00;;;;;;5014521;28;20032;-67
2022/10/30 00:07:34;;;;;;;10.02;3.13;;;15.10;89.40;;;;;;5014569;28;20427;-67
2022/10/30 00:10:00;;;;;;;12.05;3.42;;;14.90;89.60;;;;;;5018319;28;20076;-67
2022/10/30 00:12:26;;;;;;;11.90;3.60;;;14.90;90.20;;;;;;5013439;28;20075;-67
2022/10/30 00:14:51;;;;;;;15.80;4.05;;;14.70;91.10;;;;;;5012387;28;20033;-67
2022/10/30 00:17:17;;;;;;;14.35;3.42;;;14.50;91.90;;;;;;5013293;28;20109;-68
2022/10/30 00:19:43;;;;;;;11.50;3.67;;;14.40;92.50;;;;;;5015475;28;20030;-67
2022/10/30 00:22:09;;;;;;;12.90;3.72;;;14.50;92.00;;;;;;5014215;28;20033;-67
2022/10/30 00:24:34;;;;;;;13.63;4.00;;;14.60;91.30;;;;;;5025313;28;20120;-66
2022/10/30 00:27:00;;;;;;;15.73;3.80;;;14.70;90.60;;;;;;5015954;28;20122;-67
2022/10/30 00:29:26;;;;;;;11.40;3.67;;;14.60;91.80;;;;;;5018554;28;20062;-67
2022/10/30 00:31:52;;;;;;;17.40;3.78;;;14.60;91.90;;;;;;5019194;28;20026;-66
2022/10/30 00:34:18;;;;;;;17.42;3.63;;;14.60;91.00;;;;;;5017474;28;20125;-67
2022/10/30 00:36:44;;;;;;;14.45;3.75;;;14.60;90.50;;;;;;5018222;28;20042;-67
2022/10/30 00:39:09;;;;;;;16.52;3.38;;;14.80;88.80;;;;;;5014471;28;20487;-67
2022/10/30 00:41:38;;;;;;;10.93;2.75;;;15.10;85.30;;;;;;5018180;28;20033;-67
2022/10/30 00:44:42;;;;;;;11.80;2.72;;;15.50;83.50;;;;;;5018612;28;20056;-67
2022/10/30 00:47:31;;;;;;;14.13;2.90;;;15.70;84.10;;;;;;5017633;28;20068;-67
2022/10/30 00:50:00;;;;;;;14.30;3.20;;;15.70;83.20;;;;;;5021766;28;20099;-67
2022/10/30 00:52:32;;;;;;;15.32;3.50;;;15.60;85.20;;;;;;5034121;28;20025;-67
2022/10/30 00:55:08;;;;;;;12.82;3.28;;;15.50;85.20;;;;;;5014905;28;20026;-67
2022/10/30 00:57:35;;;;;;;18.35;3.38;;;15.40;84.50;;;;;;5017833;28;20029;-67
2022/10/30 01:00:03;;;;;;;15.98;3.10;;;15.70;82.20;;;;;;5020236;28;20430;-67
2022/10/30 01:02:29;;;;;;;19.15;4.15;;;15.90;80.70;;;;;;5019070;28;20026;-67
2022/10/30 01:04:55;;;;;;;11.38;2.72;;;16.00;79.80;;;;;;5016844;28;20034;-67
2022/10/30 01:07:20;;;;;;;16.83;2.60;;;16.10;79.10;;;;;;5017908;28;20026;-67
2022/10/30 01:09:47;;;;;;;11.75;3.05;;;16.10;79.90;;;;;;5017654;28;20312;-67
2022/10/30 01:12:14;;;;;;;13.07;2.80;;;16.10;80.30;;;;;;5017913;28;20057;-67
2022/10/30 01:14:46;;;;;;;16.85;3.22;;;16.10;81.00;;;;;;5021897;28;20481;-66
2022/10/30 01:17:49;;;;;;;14.90;3.15;;;16.10;80.10;;;;;;5021090;28;20034;-67
2022/10/30 01:20:15;;;;;;;13.55;2.78;;;16.10;79.00;;;;;;5015972;28;20108;-67
2022/10/30 01:23:10;;;;;;;13.02;3.10;;;16.20;78.20;;;;;;5017444;28;20117;-67
2022/10/30 01:25:57;;;;;;;12.95;2.88;;;16.20;79.00;;;;;;5028753;28;20025;-67
2022/10/30 01:28:48;;;;;;;13.93;3.58;;;16.00;80.90;;;;;;5017260;28;20030;-67
2022/10/30 01:31:32;;;;;;;14.48;2.70;;;15.90;81.90;;;;;;5014428;28;20030;-67
2022/10/30 01:34:00;;;;;;;;;;;15.90;81.60;;;;;;5005854;28;20056;-67
2022/10/30 01:36:43;;;;;;;14.57;2.83;;;15.80;81.10;;;;;;5013506;28;20505;-67
2022/10/30 01:39:34;;;;;;;11.25;3.45;;;15.70;81.60;;;;;;5015372;28;20041;-67
2022/10/30 01:42:08;;;;;;;15.20;3.50;;;15.80;80.50;;;;;;5011081;28;20073;-67
2022/10/30 01:44:34;;;;;;;13.20;3.75;;;16.00;80.30;;;;;;5013787;28;20069;-67
2022/10/30 01:47:15;;;;;;;11.77;2.67;;;16.20;80.00;;;;;;5015894;28;20029;-67
2022/10/30 01:50:12;;;;;;;14.93;3.63;;;16.20;79.60;;;;;;5015208;28;20743;-67
2022/10/30 01:53:14;;;;;;;10.30;2.67;;;16.20;79.60;;;;;;5011419;28;20033;-67
2022/10/30 01:55:48;;;;;;;13.48;3.25;;;16.10;79.70;;;;;;5016262;28;20026;-67
2022/10/30 01:58:22;;;;;;;;;;;15.90;80.60;;;;;;5022087;28;20041;-67
2022/10/30 02:00:54;;;;;;;10.40;2.20;;;15.80;81.10;;;;;;5030799;28;19937;-67
2022/10/30 02:03:21;;;;;;;11.55;2.65;;;15.60;82.50;;;;;;5037134;28;20064;-67
2022/10/30 02:05:52;;;;;;;13.27;2.80;;;15.40;83.80;;;;;;5027099;28;20389;-67
2022/10/30 02:08:18;;;;;;;14.55;3.05;;;15.20;85.60;;;;;;5022514;28;20079;-67
2022/10/30 02:10:47;;;;;;;12.40;2.78;;;14.90;86.30;;;;;;5016174;28;20099;-66
2022/10/30 02:13:13;;;;;;;13.82;3.00;;;14.60;87.00;;;;;;5014031;28;20033;-65
2022/10/30 02:15:40;;;;;;;12.63;2.33;;;14.50;88.40;;;;;;5011328;28;20065;-65
2022/10/30 02:18:06;;;;;;;17.10;3.33;;;14.30;89.30;;;;;;5012596;28;20056;-65
2022/10/30 02:20:32;;;;;;;13.07;3.53;;;14.20;89.00;;;;;;5013713;28;20119;-66
2022/10/30 02:23:00;;;;;;;11.10;3.05;;;14.10;89.30;;;;;;5016600;28;20033;-67
2022/10/30 02:25:26;;;;;;;15.27;3.08;;;14.10;90.00;;;;;;5012740;28;20034;-67
2022/10/30 02:27:55;;;;;;;16.60;3.83;;;14.00;90.60;;;;;;5016378;28;20038;-66
2022/10/30 02:30:23;;;;;;;12.38;3.20;;;13.80;91.20;;;;;;5014017;28;20036;-67
2022/10/30 02:32:49;;;;;;;13.05;3.08;;;13.80;90.80;;;;;;5019919;28;20084;-67
2022/10/30 02:35:15;;;;;;;9.02;2.90;;;13.70;90.70;;;;;;5015251;28;20501;-67
2022/10/30 02:37:40;;;;;;;17.13;2.97;;;13.60;91.80;;;;;;5012551;28;20137;-66
2022/10/30 02:40:10;;;;;;;18.88;3.00;;;13.70;90.20;;;;;;5016643;28;20232;-66
2022/10/30 02:42:36;;;;;;;12.52;2.83;;;14.00;88.70;;;;;;5012859;28;20026;-67
2022/10/30 02:45:02;;;;;;;12.05;2.95;;;14.40;86.50;;;;;;5013290;28;20018;-67
2022/10/30 02:47:28;;;;;;;13.30;2.85;;;14.50;85.60;;;;;;5015032;28;20100;-66
2022/10/30 02:49:54;;;;;;;14.60;3.13;;;14.50;86.70;;;;;;5013494;28;20026;-67
2022/10/30 02:52:19;;;;;;;13.75;3.63;;;14.60;84.80;;;;;;5016049;28;20026;-67
2022/10/30 02:54:45;;;;;;;17.95;3.75;;;15.10;82.40;;;;;;5019327;28;20040;-67
2022/10/30 02:57:13;;;;;;;15.57;3.60;;;15.20;83.70;;;;;;5024473;28;20069;-67
2022/10/30 02:59:39;;;;;;;12.70;2.40;;;15.20;83.20;;;;;;5021079;28;20030;-67
2022/10/30 03:02:05;;;;;;;12.70;2.92;;;15.30;81.70;;;;;;5017200;28;20477;-67
2022/10/30 03:04:30;;;;;;;12.18;2.70;;;15.20;83.60;;;;;;5011305;28;20423;-67
2022/10/30 03:06:56;;;;;;;12.88;3.17;;;15.10;83.60;;;;;;5014813;28;20029;-67
2022/10/30 03:09:21;;;;;;;13.63;2.78;;;15.10;81.90;;;;;;5021341;28;20038;-67
2022/10/30 03:11:47;;;;;;;15.63;2.75;;;15.20;83.10;;;;;;5019544;28;20038;-67
2022/10/30 03:14:13;;;;;;;12.02;1.92;;;15.10;82.90;;;;;;5023583;28;20133;-67
2022/10/30 03:16:38;;;;;;;8.60;2.15;;;15.10;82.90;;;;;;5018010;28;20425;-67
2022/10/30 03:19:07;;;;;;;9.80;2.30;;;15.10;82.90;;;;;;5021998;28;20080;-67
2022/10/30 03:21:33;;;;;;;11.13;2.35;;;15.00;81.50;;;;;;5018956;28;20116;-67
2022/10/30 03:23:59;;;;;;;10.65;2.03;;;15.00;82.00;;;;;;5013374;28;20105;-66
2022/10/30 03:26:25;;;;;;;10.82;2.00;;;15.00;81.50;;;;;;5015636;28;20105;-67
2022/10/30 03:28:51;;;;;;;11.60;2.60;;;14.90;82.90;;;;;;5014800;28;20060;-67
2022/10/30 03:31:18;;;;;;;11.98;2.35;;;14.80;81.90;;;;;;5020512;28;20415;-67
2022/10/30 03:33:44;;;;;;;10.18;2.50;;;14.90;81.50;;;;;;5019340;28;20033;-67
2022/10/30 03:36:12;;;;;;;12.02;2.20;;;15.10;81.10;;;;;;5022732;28;20105;-67
2022/10/30 03:38:38;;;;;;;12.63;2.50;;;15.00;82.00;;;;;;5012000;28;20037;-66
2022/10/30 03:41:04;;;;;;;5.32;1.83;;;15.00;80.30;;;;;;5012493;28;20033;-67
2022/10/30 03:43:30;;;;;;;10.00;2.05;;;14.90;80.20;;;;;;5014156;28;20146;-66
2022/10/30 03:45:56;;;;;;;9.00;2.10;;;14.80;81.50;;;;;;5013972;28;20097;-67
2022/10/30 03:48:24;;;;;;;11.63;2.20;;;14.80;80.30;;;;;;5014448;28;20377;-67
2022/10/30 03:50:54;;;;;;;6.90;2.22;;;14.70;80.00;;;;;;5025197;28;20083;-67
2022/10/30 03:53:19;;;;;;;8.13;2.15;;;14.70;79.30;;;;;;5015124;28;20030;-66
2022/10/30 03:55:45;;;;;;;8.07;1.50;;;14.80;79.70;;;;;;5016221;28;20053;-67
2022/10/30 03:58:11;;;;;;;8.13;2.10;;;14.80;79.30;;;;;;5018412;28;20229;-67
2022/10/30 04:00:36;;;;;;;8.38;1.92;;;14.80;78.80;;;;;;5031735;28;20042;-66
2022/10/30 04:03:06;;;;;;;9.13;2.00;;;14.60;79.70;;;;;;5018282;28;20418;-67
2022/10/30 04:05:34;;;;;;;8.35;2.20;;;14.70;80.50;;;;;;5031540;28;20030;-66
2022/10/30 04:08:02;;;;;;;12.15;2.70;;;14.70;79.90;;;;;;5018108;28;20357;-67
2022/10/30 04:10:28;;;;;;;6.82;2.05;;;14.90;77.70;;;;;;5020480;28;20018;-67
2022/10/30 04:13:04;;;;;;;7.30;1.83;;;15.00;76.60;;;;;;5018093;28;20377;-67
2022/10/30 04:15:30;;;;;;;7.05;1.90;;;15.10;75.50;;;;;;5027234;28;20101;-67
2022/10/30 04:17:56;;;;;;;8.55;1.80;;;15.20;76.30;;;;;;5027717;28;20030;-67
2022/10/30 04:20:24;;;;;;;7.85;1.88;;;15.10;75.70;;;;;;5022866;28;20025;-67
2022/10/30 04:22:55;;;;;;;6.13;1.65;;;15.20;76.50;;;;;;5017106;28;20084;-67
2022/10/30 04:25:21;;;;;;;10.25;2.42;;;15.10;77.20;;;;;;5014284;28;20061;-67
2022/10/30 04:27:48;;;;;;;8.43;1.50;;;15.00;76.70;;;;;;5016482;28;20049;-67
2022/10/30 04:30:14;;;;;;;8.35;1.77;;;15.00;76.20;;;;;;5022701;28;20038;-66
2022/10/30 04:33:09;;;;;;;8.55;1.58;;;15.00;76.70;;;;;;5027226;28;20053;-67
2022/10/30 04:35:35;;;;;;;4.53;1.23;;;15.00;76.50;;;;;;5028184;28;20078;-67
2022/10/30 04:38:06;;;;;;;6.07;1.60;;;14.90;76.50;;;;;;5017738;28;20055;-67
2022/10/30 04:40:35;;;;;;;5.18;1.73;;;14.70;77.40;;;;;;5018993;28;20072;-67
2022/10/30 04:43:01;;;;;;;8.40;1.60;;;14.60;78.20;;;;;;5016910;28;20040;-67
2022/10/30 04:45:27;;;;;;;4.93;1.30;;;14.60;78.40;;;;;;5017262;28;20029;-67
2022/10/30 04:48:00;;;;;;;6.93;1.73;;;14.60;78.10;;;;;;5016691;28;20030;-66
2022/10/30 04:50:26;;;;;;;7.55;1.70;;;14.60;77.40;;;;;;5004771;28;20362;-66
2022/10/30 04:53:06;;;;;;;5.72;1.58;;;14.70;77.00;;;;;;5014555;28;20040;-67
2022/10/30 04:55:35;;;;;;;14.35;2.17;;;14.70;77.90;;;;;;5017448;28;20033;-66
2022/10/30 04:58:01;;;;;;;6.78;1.65;;;14.60;77.80;;;;;;5018210;28;20088;-67
2022/10/30 05:00:28;;;;;;;5.93;1.75;;;14.60;78.20;;;;;;5018956;28;20030;-67
2022/10/30 05:02:57;;;;;;;12.52;2.20;;;14.60;78.20;;;;;;5021214;28;20030;-67
2022/10/30 05:05:23;;;;;;;6.43;1.98;;;14.60;77.90;;;;;;5019977;28;20034;-67
2022/10/30 05:07:49;;;;;;;5.22;1.55;;;14.50;77.90;;;;;;5017987;28;20464;-65
2022/10/30 05:10:15;;;;;;;6.53;1.80;;;14.60;77.20;;;;;;5023671;28;21417;-65
2022/10/30 05:12:42;;;;;;;8.68;1.98;;;14.60;77.70;;;;;;5017788;28;20362;-65
2022/10/30 05:15:08;;;;;;;6.05;1.92;;;14.50;78.00;;;;;;5024952;28;20092;-65
2022/10/30 05:17:34;;;;;;;4.80;1.52;;;14.40;78.40;;;;;;5022952;28;20505;-66
2022/10/30 05:20:00;;;;;;;6.50;1.80;;;14.40;77.20;;;;;;5018942;28;20108;-67
2022/10/30 05:22:25;;;;;;;7.30;1.60;;;14.40;76.50;;;;;;5016975;28;20026;-66
2022/10/30 05:24:51;;;;;;;4.82;1.50;;;14.60;76.20;;;;;;5014074;28;20037;-67
2022/10/30 05:27:16;;;;;;;7.07;1.70;;;14.60;77.00;;;;;;5017179;28;20014;-66
2022/10/30 05:29:42;;;;;;;5.70;2.00;;;14.60;77.50;;;;;;5018906;28;20468;-67
2022/10/30 05:32:08;;;;;;;7.80;1.73;;;14.60;76.90;;;;;;5016832;28;20034;-66
2022/10/30 05:34:33;;;;;;;7.60;1.90;;;14.40;78.90;;;;;;5027574;28;20044;-67
2022/10/30 05:37:00;;;;;;;6.32;1.65;;;14.30;77.20;;;;;;5014844;28;20042;-67
2022/10/30 05:39:26;;;;;;;5.03;1.23;;;14.40;76.70;;;;;;5024883;28;20104;-66
2022/10/30 05:41:51;;;;;;;6.30;1.77;;;14.50;77.80;;;;;;5021478;28;20129;-66
2022/10/30 05:44:17;;;;;;;6.85;1.33;;;14.50;77.80;;;;;;5019645;28;20049;-66
2022/10/30 05:46:46;;;;;;;6.03;1.50;;;14.50;77.70;;;;;;5017538;28;20035;-67
2022/10/30 05:49:11;;;;;;;8.25;2.03;;;14.40;77.30;;;;;;5017601;28;20034;-67
2022/10/30 05:51:37;;;;;;;3.92;1.50;;;14.50;77.20;;;;;;5016197;28;20044;-66
2022/10/30 05:54:03;;;;;;;7.90;1.83;;;14.60;76.70;;;;;;5027968;28;20036;-67
2022/10/30 05:56:29;;;;;;;5.38;1.55;;;14.60;76.70;;;;;;5014617;28;20323;-66
2022/10/30 05:58:54;;;;;;;10.25;1.88;;;14.70;76.40;;;;;;5030072;28;20036;-66
2022/10/30 06:01:20;;;;;;;7.07;1.40;;;14.70;76.40;;;;;;5015631;28;20426;-66
2022/10/30 06:03:46;;;;;;;7.05;1.35;;;14.70;76.60;;;;;;5015901;28;20061;-66
2022/10/30 06:06:14;;;;;;;8.32;2.05;;;14.70;76.80;;;;;;5016495;28;20315;-66
2022/10/30 06:08:40;;;;;;;6.65;1.60;;;14.70;76.60;;;;;;5015106;28;20092;-67
2022/10/30 06:11:06;;;;;;;10.65;1.70;;;14.70;76.60;;;;;;5011923;28;20220;-67
2022/10/30 06:13:31;;;;;;;4.60;1.73;;;14.90;75.00;;;;;;5016870;28;20030;-67
2022/10/30 06:15:57;;;;;;;7.88;1.48;;;14.90;75.70;;;;;;5013485;28;20026;-66
2022/10/30 06:18:23;;;;;;;4.80;1.40;;;14.90;76.50;;;;;;5009861;28;20362;-66
2022/10/30 06:20:48;;;;;;;6.43;1.38;;;14.80;77.00;;;;;;5015862;28;20041;-67
2022/10/30 06:23:14;;;;;;;5.93;1.33;;;14.90;76.90;;;;;;5016477;28;20100;-67
2022/10/30 06:25:40;;;;;;;5.50;1.45;;;14.90;76.70;;;;;;5014673;28;21213;-67
2022/10/30 06:28:06;;;;;;;5.75;1.50;;;15.00;76.50;;;;;;5014864;28;20032;-67
2022/10/30 06:30:32;;;;;;;5.80;1.40;;;15.00;77.50;;;;;;5029377;28;20026;-67
2022/10/30 06:33:03;;;;;;;6.03;1.70;;;15.00;76.80;;;;;;5019684;28;20121;-67
2022/10/30 06:35:29;;;;;;;11.68;2.03;;;15.10;77.20;;;;;;5025090;28;20083;-67
2022/10/30 06:37:57;;;;;;;7.05;1.60;;;15.20;77.00;;;;;;5030420;28;20042;-67
2022/10/30 06:40:23;;;;;;;7.00;1.98;;;15.20;77.10;;;;;;5033580;28;20021;-67
2022/10/30 06:42:50;;;;;;;6.43;1.50;;;15.30;77.10;;;;;;5018752;28;20040;-67
2022/10/30 06:45:18;;;;;;;7.55;1.85;;;15.30;76.90;;;;;;5022237;28;20777;-67
2022/10/30 06:47:44;;;;;;;4.72;1.52;;;15.40;77.10;;;;;;5027934;28;20311;-67
2022/10/30 06:50:12;;;;;;;7.07;1.50;;;15.50;77.10;;;;;;5018436;28;20032;-67
2022/10/30 06:52:38;;;;;;;6.47;1.27;;;15.60;76.80;;;;;;5015217;28;20033;-67
2022/10/30 06:55:05;;;;;;;4.00;1.30;;;15.70;76.40;;;;;;5025713;28;20103;-67
2022/10/30 06:57:30;;;;;;;7.25;1.30;;;15.80;76.80;;;;;;5031688;28;20036;-67
2022/10/30 06:59:56;;;;;;;5.13;1.10;;;15.90;76.90;;;;;;5016751;28;20406;-67
2022/10/30 07:02:22;;;;;;;5.05;1.20;;;16.00;77.80;;;;;;5013660;28;20029;-67
2022/10/30 07:04:47;;;;;;;6.35;1.45;;;16.10;78.00;;;;;;5016122;28;20308;-67
2022/10/30 07:07:14;;;;;;;6.80;1.55;;;16.20;76.70;;;;;;5020520;28;20029;-67
2022/10/30 07:09:40;;;;;;;5.22;1.60;;;16.40;75.90;;;;;;5021579;28;20037;-67
2022/10/30 07:12:06;;;;;;;5.47;1.33;;;16.70;75.50;;;;;;5019836;28;20087;-66
2022/10/30 07:14:32;;;;;;;6.70;1.20;;;16.80;77.10;;;;;;5015876;28;20104;-67
2022/10/30 07:16:57;;;;;;;7.28;1.52;;;16.90;77.00;;;;;;5017202;28;20529;-67
2022/10/30 07:19:23;;;;;;;6.05;1.70;;;17.00;76.00;;;;;;5015836;28;20062;-68
2022/10/30 07:21:49;;;;;;;3.85;1.15;;;17.20;76.50;;;;;;5016024;28;20034;-67
2022/10/30 07:24:15;;;;;;;6.22;1.40;;;17.30;76.70;;;;;;5019857;28;20029;-67
2022/10/30 07:26:41;;;;;;;3.95;1.30;;;17.40;76.40;;;;;;5014852;28;20026;-67
2022/10/30 07:29:07;;;;;;;4.43;1.20;;;17.60;77.30;;;;;;5019045;28;20423;-67
2022/10/30 07:31:33;;;;;;;5.00;1.40;;;17.60;78.50;;;;;;5015343;28;20330;-68
2022/10/30 07:33:58;;;;;;;4.32;1.55;;;17.70;78.80;;;;;;5014668;28;20037;-67
2022/10/30 07:36:24;;;;;;;4.95;1.27;;;17.70;77.90;;;;;;5019585;28;20051;-67
2022/10/30 07:38:51;;;;;;;4.15;1.27;;;17.80;77.90;;;;;;5016674;28;20034;-67
2022/10/30 07:41:17;;;;;;;8.20;3.10;;;17.90;78.70;;;;;;5028436;28;20037;-67
2022/10/30 07:43:46;;;;;;;10.35;3.50;;;17.70;78.50;;;;;;5030609;28;20369;-67
2022/10/30 07:46:13;;;;;;;8.00;3.17;;;17.70;78.10;;;;;;5013908;28;20105;-67
2022/10/30 07:48:39;;;;;;;9.13;3.30;;;17.70;78.70;;;;;;5027813;28;20026;-67
2022/10/30 07:51:05;;;;;;;10.07;2.63;;;17.80;80.20;;;;;;5013386;28;20080;-67
2022/10/30 07:53:31;;;;;;;6.25;2.00;;;18.00;78.60;;;;;;5024374;28;20042;-67
2022/10/30 07:55:56;;;;;;;11.40;4.70;;;18.00;78.80;;;;;;5015850;28;20030;-67
2022/10/30 07:58:22;;;;;;;10.70;5.78;;;18.30;78.90;;;;;;5017585;28;20048;-66
2022/10/30 08:00:48;;;;;;;8.82;3.72;;;18.60;77.70;;;;;;5012833;28;20033;-67
2022/10/30 08:03:14;;;;;;;11.45;4.10;;;19.00;78.00;;;;;;5028229;28;20025;-66
2022/10/30 08:05:39;;;;;;;7.85;3.08;;;19.30;76.60;;;;;;5027420;28;20033;-65
2022/10/30 08:08:06;;;;;;;7.07;2.20;;;19.10;76.30;;;;;;5020139;28;20038;-65
2022/10/30 08:10:32;;;;;;;6.93;1.75;;;19.10;78.90;;;;;;5025312;28;20460;-65
2022/10/30 08:12:58;;;;;;;4.03;1.52;;;18.80;79.10;;;;;;5026302;28;20104;-67
2022/10/30 08:15:24;;;;;;;6.60;1.58;;;18.70;79.10;;;;;;5026206;28;20434;-67
2022/10/30 08:17:50;;;;;;;8.82;1.63;;;18.60;80.80;;;;;;5021551;28;20088;-67
2022/10/30 08:20:19;;;;;;;5.43;1.60;;;18.60;79.50;;;;;;5015213;28;20449;-67
2022/10/30 08:22:48;;;;;;;6.10;2.17;;;18.80;80.30;;;;;;5029775;28;20342;-67
2022/10/30 08:25:16;;;;;;;7.30;2.28;;;19.10;81.40;;;;;;5014528;28;20030;-67
2022/10/30 08:27:54;;;;;;;10.48;2.25;;;19.40;80.90;;;;;;5023131;28;20025;-67
2022/10/30 08:30:21;;;;;;;5.82;1.83;;;20.00;79.10;;;;;;5015245;28;20029;-67
2022/10/30 08:32:46;;;;;;;4.20;1.48;;;20.30;77.90;;;;;;5012321;28;20423;-67
2022/10/30 08:35:15;;;;;;;7.45;2.20;;;20.50;78.30;;;;;;5015087;28;20124;-67
2022/10/30 08:37:41;;;;;;;4.82;1.35;;;20.60;77.30;;;;;;5014521;28;20532;-67
2022/10/30 08:40:09;;;;;;;6.85;1.85;;;20.90;77.40;;;;;;5017323;28;20045;-67
2022/10/30 08:42:34;;;;;;;8.85;2.00;;;21.20;75.20;;;;;;5018752;28;20026;-67
2022/10/30 08:45:00;;;;;;;6.90;1.30;;;21.30;70.70;;;;;;5017137;28;20361;-67
2022/10/30 08:47:25;;;;;;;5.18;1.33;;;21.70;68.40;;;;;;5017335;28;20344;-67
2022/10/30 08:49:51;;;;;;;4.72;1.40;;;22.30;65.60;;;;;;5014017;28;20112;-66
2022/10/30 08:52:17;;;;;;;6.15;1.60;;;22.80;64.00;;;;;;5017807;28;20084;-67
2022/10/30 08:54:42;;;;;;;6.32;1.50;;;23.40;63.70;;;;;;5013481;28;20041;-67
2022/10/30 08:57:08;;;;;;;6.85;1.60;;;24.20;62.50;;;;;;5017689;28;20109;-67
2022/10/30 08:59:34;;;;;;;8.13;1.63;;;25.10;62.90;;;;;;5016161;28;20057;-65
2022/10/30 09:02:00;;;;;;;9.02;2.60;;;25.60;58.60;;;;;;5015789;28;20057;-65
2022/10/30 09:04:25;;;;;;;7.90;1.70;;;25.70;59.30;;;;;;5016468;28;20030;-66
2022/10/30 09:06:51;;;;;;;9.20;2.42;;;25.80;56.70;;;;;;5016160;28;20026;-65
2022/10/30 09:09:16;;;;;;;5.55;1.55;;;26.50;60.80;;;;;;5017563;28;20366;-66
2022/10/30 09:11:42;;;;;;;8.05;1.65;;;27.20;60.90;;;;;;5015894;28;20516;-66
2022/10/30 09:14:08;;;;;;;7.85;1.40;;;27.20;61.60;;;;;;5018254;28;20084;-66
2022/10/30 09:16:33;;;;;;;6.65;1.75;;;27.10;61.50;;;;;;5021951;28;20052;-66
2022/10/30 09:18:59;;;;;;;8.60;1.65;;;27.10;60.90;;;;;;5037931;28;20033;-67
2022/10/30 09:21:25;;;;;;;7.55;1.95;;;27.20;61.40;;;;;;5032679;28;20029;-67
2022/10/30 09:23:53;;;;;;;9.27;2.13;;;27.50;60.80;;;;;;5022103;28;20022;-66
2022/10/30 09:26:19;;;;;;;8.60;2.00;;;27.90;58.10;;;;;;5026622;28;20438;-66
2022/10/30 09:28:44;;;;;;;5.75;1.50;;;28.10;57.30;;;;;;5036234;28;20029;-66
2022/10/30 09:31:10;;;;;;;7.43;1.40;;;28.10;57.10;;;;;;5032798;28;20410;-65
2022/10/30 09:33:36;;;;;;;6.10;1.63;;;28.00;56.30;;;;;;5021421;28;20303;-67
2022/10/30 09:36:01;;;;;;;5.90;1.40;;;28.10;56.70;;;;;;5016833;28;20041;-67
2022/10/30 09:38:29;;;;;;;7.43;1.83;;;28.40;56.30;;;;;;5022483;28;20044;-67
2022/10/30 09:41:23;;;;;;;6.70;2.40;;;28.50;56.20;;;;;;5027963;28;20452;-66
2022/10/30 09:44:17;;;;;;;6.32;2.00;;;28.20;57.60;;;;;;5035306;28;20049;-67
2022/10/30 09:46:43;;;;;;;;;;;27.70;58.40;;;;;;5017038;28;20022;-67
2022/10/30 09:49:29;;;;;;;5.72;2.03;;;27.10;60.00;;;;;;5036063;28;19958;-67
2022/10/30 09:52:09;;;;;;;6.95;2.08;;;26.70;61.70;;;;;;5016460;28;20041;-67
2022/10/30 09:54:46;;;;;;;8.32;2.38;;;26.90;62.00;;;;;;5017882;28;20414;-67
2022/10/30 09:57:18;;;;;;;8.93;2.08;;;27.40;61.10;;;;;;5019161;28;20030;-67
2022/10/30 10:00:02;;;;;;;7.65;2.50;;;27.60;59.50;;;;;;5014806;28;20033;-67
2022/10/30 10:02:56;;;;;;;7.07;2.38;;;27.70;59.40;;;;;;5017062;28;20030;-66
2022/10/30 10:05:27;;;;;;;12.10;2.55;;;27.90;59.30;;;;;;5013204;28;20048;-66
2022/10/30 10:08:17;;;;;;;9.40;2.70;;;28.20;59.40;;;;;;5018666;28;20063;-67
2022/10/30 10:10:45;;;;;;;10.05;3.33;;;28.10;59.30;;;;;;5014861;28;20030;-67
2022/10/30 10:13:29;;;;;;;9.75;3.03;;;28.00;60.50;;;;;;5016972;28;20060;-65
2022/10/30 10:16:38;;;;;;;8.10;2.65;;;27.60;59.80;;;;;;5016720;28;20423;-65
2022/10/30 10:19:15;;;;;;;10.02;2.78;;;27.70;58.80;;;;;;5016202;28;20022;-66
2022/10/30 10:22:02;;;;;;;7.63;3.22;;;27.30;59.00;;;;;;5023811;28;20033;-66
2022/10/30 10:24:43;;;;;;;10.38;2.75;;;26.90;60.30;;;;;;5024380;28;20033;-65
2022/10/30 10:27:20;;;;;;;8.52;2.53;;;26.70;61.10;;;;;;5008169;28;20026;-65
2022/10/30 10:30:28;;;;;;;10.88;2.15;;;26.20;60.70;;;;;;5017047;28;20314;-65
2022/10/30 10:33:02;;;;;;;6.35;1.85;;;25.80;60.10;;;;;;5002326;28;20311;-67
2022/10/30 10:35:36;;;;;;;7.65;2.85;;;25.90;63.50;;;;;;5013471;28;20124;-67
2022/10/30 10:38:23;;;;;;;5.43;1.55;;;26.40;62.50;;;;;;5009018;28;20045;-66
2022/10/30 10:40:57;;;;;;;6.13;1.75;;;26.70;57.40;;;;;;5011545;28;20026;-67
2022/10/30 10:43:26;;;;;;;5.40;1.60;;;26.90;57.50;;;;;;5032680;28;20462;-66
2022/10/30 10:46:16;;;;;;;7.82;1.50;;;26.80;57.80;;;;;;5022743;28;20117;-67
2022/10/30 10:49:06;;;;;;;6.25;1.77;;;26.90;58.80;;;;;;5016308;28;20307;-67
2022/10/30 10:51:44;;;;;;;6.22;1.73;;;27.30;56.00;;;;;;5013178;28;20061;-66
2022/10/30 10:54:23;;;;;;;4.68;1.40;;;27.90;55.10;;;;;;5014094;28;20304;-66
2022/10/30 10:56:53;;;;;;;7.63;1.58;;;28.70;52.00;;;;;;5015408;28;20323;-66
2022/10/30 10:59:40;;;;;;;6.82;1.70;;;29.00;53.20;;;;;;5016074;28;20310;-66
2022/10/30 11:02:10;;;;;;;4.20;1.50;;;29.00;52.50;;;;;;5015038;28;20311;-66
2022/10/30 11:04:40;;;;;;;5.00;1.50;;;28.60;50.60;;;;;;5014715;28;20030;-65
2022/10/30 11:07:21;;;;;;;7.05;1.60;;;28.30;50.70;;;;;;5014612;28;20022;-66
2022/10/30 11:09:51;;;;;;;7.43;1.67;;;27.90;50.30;;;;;;5012677;28;20025;-67
2022/10/30 11:12:42;;;;;;;7.15;1.60;;;27.60;50.60;;;;;;5015215;28;20029;-65
2022/10/30 11:15:50;;;;;;;6.60;1.58;;;27.70;52.00;;;;;;5015688;28;20448;-66
2022/10/30 11:18:16;;;;;;;5.65;1.60;;;27.70;55.00;;;;;;4985086;28;20050;-66
2022/10/30 11:21:24;;;;;;;6.80;2.10;;;27.70;54.70;;;;;;5006944;28;20033;-67
2022/10/30 11:23:53;;;;;;;5.30;1.55;;;27.40;57.50;;;;;;5008713;28;20092;-67
2022/10/30 11:26:24;;;;;;;6.43;1.58;;;27.30;59.50;;;;;;5013633;28;20065;-66
2022/10/30 11:29:19;;;;;;;8.55;1.80;;;27.30;58.60;;;;;;5015473;28;20022;-67
2022/10/30 11:31:46;;;;;;;5.68;1.55;;;27.50;56.50;;;;;;5012647;28;20030;-67
2022/10/30 11:34:17;;;;;;;4.22;1.30;;;27.60;56.20;;;;;;5015102;28;20030;-66
2022/10/30 11:37:02;;;;;;;5.00;1.40;;;27.50;55.10;;;;;;5014173;28;20049;-67
2022/10/30 11:39:33;;;;;;;6.07;1.98;;;27.20;55.10;;;;;;5016067;28;20029;-68
2022/10/30 11:42:02;;;;;;;4.90;1.70;;;27.10;56.20;;;;;;5014606;28;20034;-66
2022/10/30 11:44:39;;;;;;;5.68;1.70;;;27.20;56.40;;;;;;5013990;28;20116;-66
2022/10/30 11:47:14;;;;;;;8.35;1.70;;;27.20;57.70;;;;;;5013949;28;20056;-66
2022/10/30 11:49:43;;;;;;;6.07;1.70;;;27.40;57.20;;;;;;5014149;28;20104;-66
2022/10/30 11:52:11;;;;;;;6.20;2.00;;;27.40;58.40;;;;;;5012512;28;20038;-66
2022/10/30 11:54:40;;;;;;;6.47;1.70;;;27.60;57.80;;;;;;5011454;28;21872;-66
2022/10/30 11:57:17;;;;;;;6.22;1.80;;;27.70;57.50;;;;;;5014681;28;20114;-68
2022/10/30 11:59:46;;;;;;;7.88;2.03;;;27.70;57.40;;;;;;5013175;28;20308;-67
2022/10/30 12:02:28;;;;;;;10.63;2.10;;;27.20;57.90;;;;;;5014535;28;20066;-67
2022/10/30 12:05:26;;;;;;;6.80;1.70;;;27.10;58.10;;;;;;5001813;28;20026;-67
2022/10/30 12:07:54;;;;;;;8.10;1.98;;;27.20;58.60;;;;;;5014859;28;20053;-66
2022/10/30 12:10:27;;;;;;;5.55;2.00;;;26.90;57.50;;;;;;5014232;28;20080;-65
2022/10/30 12:12:55;;;;;;;6.07;1.65;;;26.70;58.90;;;;;;5027408;28;20101;-66
2022/10/30 12:15:30;;;;;;;9.10;2.17;;;26.70;58.60;;;;;;5016666;28;20440;-67
2022/10/30 12:18:01;;;;;;;6.68;1.85;;;26.80;58.30;;;;;;5017380;28;20034;-66
2022/10/30 12:20:28;;;;;;;7.30;2.10;;;26.90;58.20;;;;;;5018021;28;20026;-67
2022/10/30 12:22:54;;;;;;;6.60;2.08;;;26.80;58.80;;;;;;5018415;28;20025;-67
2022/10/30 12:25:30;;;;;;;7.88;1.75;;;26.80;58.50;;;;;;5017354;28;20029;-67
2022/10/30 12:28:32;;;;;;;7.07;1.98;;;26.50;57.90;;;;;;5018701;28;20022;-67
2022/10/30 12:31:10;;;;;;;9.38;2.42;;;25.90;58.80;;;;;;4994903;28;20510;-66
2022/10/30 12:34:11;;;;;;;7.53;2.05;;;25.70;60.60;;;;;;4993944;28;20085;-66
2022/10/30 12:36:49;;;;;;;6.45;2.17;;;26.00;61.00;;;;;;4988066;28;20046;-67
2022/10/30 12:39:23;;;;;;;10.05;2.08;;;25.80;60.60;;;;;;4998660;28;20048;-65
2022/10/30 12:42:11;;;;;;;7.47;2.03;;;25.20;61.00;;;;;;5018541;28;20099;-66
2022/10/30 12:44:52;;;;;;;9.23;1.90;;;25.10;63.60;;;;;;5017906;28;20030;-65
2022/10/30 12:47:25;;;;;;;8.25;2.22;;;25.20;62.40;;;;;;5017357;28;20049;-67
2022/10/30 12:49:59;;;;;;;6.43;1.80;;;25.20;64.00;;;;;;5017732;28;20022;-67
2022/10/30 12:52:28;;;;;;;;;;;25.20;64.50;;;;;;5018988;28;20470;-67
2022/10/30 12:55:20;;;;;;;9.25;2.10;;;25.10;65.00;;;;;;5017513;28;19988;-67
2022/10/30 12:57:55;;;;;;;7.40;2.17;;;25.00;64.00;;;;;;5018560;28;20033;-67
2022/10/30 13:00:24;;;;;;;7.65;2.00;;;24.80;63.70;;;;;;5017081;28;20026;-66
2022/10/30 13:03:37;;;;;;;7.57;2.20;;;24.80;63.40;;;;;;5017352;28;20426;-66